Vremea acum in Dorohoi - Romania

Vrei sa afli care e starea vremii acum in Botosani - Romania? Dorim sa iti furnizam starea vremii pentru Botosani - Romania. Starea vremii Botosani - Romania pentru astazi.

Vremea acum in Dorohoi

Temperatura: 9.4 °C

Este: Senin
Se simte ca: 8.5 °C
Innorat: 5 %
Precipitatii: 0 %
Presiune atmosferica: 1018 hPa
Umiditate: 82%
Vizibilitate: 10 km
Vantul bate din W cu 6.8 km/h

Evolutia vremii in Dorohoi pe ore

Ora: 06:00
Senin
Temperatura: 7.9°C
Sansa de precipitatii: 0%
Ora Descriere Temp Se simte Precipitatii Umiditate Vant
00:00Patchy rain nearby9.6°8.3°100%77%SW 9.4 KM/H
01:00Patchy rain nearby9.3°8.2°76%79%SW 7.9 KM/H
02:00Senin8.8°8.2°0%81%SW 5.8 KM/H
03:00Senin8.7°0%83%WSW 5.8 KM/H
04:00Senin8.6°7.8°0%84%W 6.1 KM/H
05:00Senin8.5°8.1°0%84%WSW 4.7 KM/H
06:00Senin7.9°0%86%SSW 6.1 KM/H
07:00Senin9.4°8.5°0%82%W 6.8 KM/H
08:00Senin12.3°11.2°0%73%NW 11.5 KM/H
09:00Senin14.7°13.8°0%67%NNW 13.7 KM/H
10:00Senin16.6°16.6°0%62%NNW 10.4 KM/H
11:00Senin18.3°18.3°0%58%N 10.8 KM/H
12:00Senin19.9°19.9°0%54%N 11.9 KM/H
13:00Senin21.3°21.3°0%49%NNE 12.6 KM/H
14:00Senin22.3°24.2°0%42%NNE 12.2 KM/H
15:00Senin22.9°24.2°0%38%NE 11.2 KM/H
16:00Senin23.1°24.2°0%36%NE 12.2 KM/H
17:00Senin22.9°24.1°0%37%ENE 14 KM/H
18:00Senin22.4°24.3°0%42%E 10.4 KM/H
19:00Senin20.6°20.7°0%53%SE 9.4 KM/H
20:00Senin17.9°17.9°0%56%SSE 10.1 KM/H
21:00Senin16.9°16.9°0%53%S 10.1 KM/H
22:00Senin15.3°15.3°0%55%S 8.3 KM/H
23:00Senin14.1°14.2°0%58%SSW 6.1 KM/H




tutorials